sensor_id;sensor_type;location;lat;lon;timestamp;temperature;humidity
38020;DHT22;23829;51.350;17.286;2023-01-15T00:01:27;21.40;32.00
38020;DHT22;23829;51.350;17.286;2023-01-15T00:03:55;21.40;32.00
38020;DHT22;23829;51.350;17.286;2023-01-15T00:06:23;21.10;32.30
38020;DHT22;23829;51.350;17.286;2023-01-15T00:08:50;21.30;32.00
38020;DHT22;23829;51.350;17.286;2023-01-15T00:11:17;21.60;31.60
38020;DHT22;23829;51.350;17.286;2023-01-15T00:13:44;21.70;31.40
38020;DHT22;23829;51.350;17.286;2023-01-15T00:16:13;21.80;31.20
38020;DHT22;23829;51.350;17.286;2023-01-15T00:18:40;21.80;31.00
38020;DHT22;23829;51.350;17.286;2023-01-15T00:21:09;21.70;31.20
38020;DHT22;23829;51.350;17.286;2023-01-15T00:23:36;22.00;31.00
38020;DHT22;23829;51.350;17.286;2023-01-15T00:26:24;21.90;30.90
38020;DHT22;23829;51.350;17.286;2023-01-15T00:29:10;21.90;31.10
38020;DHT22;23829;51.350;17.286;2023-01-15T00:31:36;21.80;31.50
38020;DHT22;23829;51.350;17.286;2023-01-15T00:34:05;21.60;32.50
38020;DHT22;23829;51.350;17.286;2023-01-15T00:36:31;21.70;31.80
38020;DHT22;23829;51.350;17.286;2023-01-15T00:39:03;21.80;31.70
38020;DHT22;23829;51.350;17.286;2023-01-15T00:41:29;21.90;31.80
38020;DHT22;23829;51.350;17.286;2023-01-15T00:43:56;21.70;32.00
38020;DHT22;23829;51.350;17.286;2023-01-15T00:46:22;21.50;32.10
38020;DHT22;23829;51.350;17.286;2023-01-15T00:48:48;21.60;32.10
38020;DHT22;23829;51.350;17.286;2023-01-15T00:51:15;21.30;32.50
38020;DHT22;23829;51.350;17.286;2023-01-15T00:53:41;21.50;32.50
38020;DHT22;23829;51.350;17.286;2023-01-15T00:56:08;21.50;32.50
38020;DHT22;23829;51.350;17.286;2023-01-15T00:58:35;21.30;32.80
38020;DHT22;23829;51.350;17.286;2023-01-15T01:01:01;21.50;32.60
38020;DHT22;23829;51.350;17.286;2023-01-15T01:03:28;21.40;32.70
38020;DHT22;23829;51.350;17.286;2023-01-15T01:06:00;21.20;33.10
38020;DHT22;23829;51.350;17.286;2023-01-15T01:08:27;21.30;33.00
38020;DHT22;23829;51.350;17.286;2023-01-15T01:11:05;21.60;32.90
38020;DHT22;23829;51.350;17.286;2023-01-15T01:13:32;21.40;33.10
38020;DHT22;23829;51.350;17.286;2023-01-15T01:15:59;21.30;33.40
38020;DHT22;23829;51.350;17.286;2023-01-15T01:18:27;21.30;33.80
38020;DHT22;23829;51.350;17.286;2023-01-15T01:20:53;21.40;33.60
38020;DHT22;23829;51.350;17.286;2023-01-15T01:23:22;21.50;34.00
38020;DHT22;23829;51.350;17.286;2023-01-15T01:25:48;21.50;33.90
38020;DHT22;23829;51.350;17.286;2023-01-15T01:28:15;21.40;34.40
38020;DHT22;23829;51.350;17.286;2023-01-15T01:30:42;21.70;34.30
38020;DHT22;23829;51.350;17.286;2023-01-15T01:33:09;21.80;34.00
38020;DHT22;23829;51.350;17.286;2023-01-15T01:35:35;21.90;34.10
38020;DHT22;23829;51.350;17.286;2023-01-15T01:38:01;22.00;33.80
38020;DHT22;23829;51.350;17.286;2023-01-15T01:40:28;22.00;33.90
38020;DHT22;23829;51.350;17.286;2023-01-15T01:42:55;22.20;33.90
38020;DHT22;23829;51.350;17.286;2023-01-15T01:45:32;22.10;33.80
38020;DHT22;23829;51.350;17.286;2023-01-15T01:48:02;21.90;34.50
38020;DHT22;23829;51.350;17.286;2023-01-15T01:50:31;21.90;34.50
38020;DHT22;23829;51.350;17.286;2023-01-15T01:53:04;22.20;34.30
38020;DHT22;23829;51.350;17.286;2023-01-15T01:55:33;22.20;34.30
38020;DHT22;23829;51.350;17.286;2023-01-15T01:58:02;22.10;34.30
38020;DHT22;23829;51.350;17.286;2023-01-15T02:00:30;22.10;34.70
38020;DHT22;23829;51.350;17.286;2023-01-15T02:02:58;22.00;34.90
38020;DHT22;23829;51.350;17.286;2023-01-15T02:05:31;22.10;34.80
38020;DHT22;23829;51.350;17.286;2023-01-15T02:07:57;22.20;34.70
38020;DHT22;23829;51.350;17.286;2023-01-15T02:10:26;22.00;35.10
38020;DHT22;23829;51.350;17.286;2023-01-15T02:13:09;21.80;35.50
38020;DHT22;23829;51.350;17.286;2023-01-15T02:15:44;21.70;35.70
38020;DHT22;23829;51.350;17.286;2023-01-15T02:18:30;21.90;35.70
38020;DHT22;23829;51.350;17.286;2023-01-15T02:21:05;21.80;35.60
38020;DHT22;23829;51.350;17.286;2023-01-15T02:23:57;21.90;35.70
38020;DHT22;23829;51.350;17.286;2023-01-15T02:29:17;22.30;35.40
38020;DHT22;23829;51.350;17.286;2023-01-15T02:31:49;22.10;35.40
38020;DHT22;23829;51.350;17.286;2023-01-15T02:34:28;22.20;35.60
38020;DHT22;23829;51.350;17.286;2023-01-15T02:37:02;22.30;35.50
38020;DHT22;23829;51.350;17.286;2023-01-15T02:39:35;22.10;35.80
38020;DHT22;23829;51.350;17.286;2023-01-15T02:42:06;21.80;36.30
38020;DHT22;23829;51.350;17.286;2023-01-15T02:44:44;21.80;36.80
38020;DHT22;23829;51.350;17.286;2023-01-15T02:47:16;22.10;36.40
38020;DHT22;23829;51.350;17.286;2023-01-15T02:49:45;22.30;36.10
38020;DHT22;23829;51.350;17.286;2023-01-15T02:52:29;22.40;36.10
38020;DHT22;23829;51.350;17.286;2023-01-15T02:55:05;22.40;35.60
38020;DHT22;23829;51.350;17.286;2023-01-15T02:57:36;22.30;36.20
38020;DHT22;23829;51.350;17.286;2023-01-15T03:00:08;22.30;36.30
38020;DHT22;23829;51.350;17.286;2023-01-15T03:02:43;22.40;36.10
38020;DHT22;23829;51.350;17.286;2023-01-15T03:05:17;22.40;36.20
38020;DHT22;23829;51.350;17.286;2023-01-15T03:07:50;22.50;36.30
38020;DHT22;23829;51.350;17.286;2023-01-15T03:10:19;22.50;36.50
38020;DHT22;23829;51.350;17.286;2023-01-15T03:12:49;22.70;36.20
38020;DHT22;23829;51.350;17.286;2023-01-15T03:18:20;22.40;36.90
38020;DHT22;23829;51.350;17.286;2023-01-15T03:20:51;22.20;37.30
38020;DHT22;23829;51.350;17.286;2023-01-15T03:23:23;22.20;37.30
38020;DHT22;23829;51.350;17.286;2023-01-15T03:25:53;22.10;37.70
38020;DHT22;23829;51.350;17.286;2023-01-15T03:28:26;22.10;37.90
38020;DHT22;23829;51.350;17.286;2023-01-15T03:30:53;22.20;37.70
38020;DHT22;23829;51.350;17.286;2023-01-15T03:33:20;22.20;37.80
38020;DHT22;23829;51.350;17.286;2023-01-15T03:35:53;22.20;37.90
38020;DHT22;23829;51.350;17.286;2023-01-15T03:38:51;21.90;38.20
38020;DHT22;23829;51.350;17.286;2023-01-15T03:52:50;22.20;38.30
38020;DHT22;23829;51.350;17.286;2023-01-15T03:55:38;22.10;38.50
38020;DHT22;23829;51.350;17.286;2023-01-15T04:01:00;21.90;39.10
38020;DHT22;23829;51.350;17.286;2023-01-15T04:03:29;21.70;39.50
38020;DHT22;23829;51.350;17.286;2023-01-15T04:05:58;21.70;39.60
38020;DHT22;23829;51.350;17.286;2023-01-15T04:08:30;21.80;39.70
38020;DHT22;23829;51.350;17.286;2023-01-15T04:10:59;21.90;39.50
38020;DHT22;23829;51.350;17.286;2023-01-15T04:13:30;22.40;38.90
38020;DHT22;23829;51.350;17.286;2023-01-15T04:15:57;22.30;38.70
38020;DHT22;23829;51.350;17.286;2023-01-15T04:18:25;22.30;38.80
38020;DHT22;23829;51.350;17.286;2023-01-15T04:20:51;22.50;38.80
38020;DHT22;23829;51.350;17.286;2023-01-15T04:23:20;22.40;38.90
38020;DHT22;23829;51.350;17.286;2023-01-15T04:25:47;22.20;39.60
38020;DHT22;23829;51.350;17.286;2023-01-15T04:28:13;22.30;39.50
38020;DHT22;23829;51.350;17.286;2023-01-15T04:30:40;22.40;39.70
38020;DHT22;23829;51.350;17.286;2023-01-15T04:33:08;22.40;40.00
38020;DHT22;23829;51.350;17.286;2023-01-15T04:35:34;22.20;40.60
38020;DHT22;23829;51.350;17.286;2023-01-15T04:38:02;22.10;41.00
38020;DHT22;23829;51.350;17.286;2023-01-15T04:40:29;22.10;40.90
38020;DHT22;23829;51.350;17.286;2023-01-15T04:43:14;22.20;41.30
38020;DHT22;23829;51.350;17.286;2023-01-15T04:45:58;22.20;41.30
38020;DHT22;23829;51.350;17.286;2023-01-15T04:48:25;22.20;41.40
38020;DHT22;23829;51.350;17.286;2023-01-15T04:50:51;21.90;42.00
38020;DHT22;23829;51.350;17.286;2023-01-15T04:53:18;22.00;42.40
38020;DHT22;23829;51.350;17.286;2023-01-15T04:55:44;22.10;42.00
38020;DHT22;23829;51.350;17.286;2023-01-15T04:58:11;22.10;41.90
38020;DHT22;23829;51.350;17.286;2023-01-15T05:00:37;22.00;42.00
38020;DHT22;23829;51.350;17.286;2023-01-15T05:03:03;22.00;42.30
38020;DHT22;23829;51.350;17.286;2023-01-15T05:05:29;21.60;43.00
38020;DHT22;23829;51.350;17.286;2023-01-15T05:08:00;21.70;43.00
38020;DHT22;23829;51.350;17.286;2023-01-15T05:10:26;22.00;42.50
38020;DHT22;23829;51.350;17.286;2023-01-15T05:12:53;22.10;42.40
38020;DHT22;23829;51.350;17.286;2023-01-15T05:15:19;21.60;43.10
38020;DHT22;23829;51.350;17.286;2023-01-15T05:17:46;21.60;43.40
38020;DHT22;23829;51.350;17.286;2023-01-15T05:20:12;21.70;43.50
38020;DHT22;23829;51.350;17.286;2023-01-15T05:22:40;22.00;42.80
38020;DHT22;23829;51.350;17.286;2023-01-15T05:25:06;22.00;42.90
38020;DHT22;23829;51.350;17.286;2023-01-15T05:27:33;21.80;43.70
38020;DHT22;23829;51.350;17.286;2023-01-15T05:29:59;21.90;43.50
38020;DHT22;23829;51.350;17.286;2023-01-15T05:32:26;21.80;43.70
38020;DHT22;23829;51.350;17.286;2023-01-15T05:34:52;21.70;44.80
38020;DHT22;23829;51.350;17.286;2023-01-15T05:37:19;21.80;43.90
38020;DHT22;23829;51.350;17.286;2023-01-15T05:39:45;21.80;44.10
38020;DHT22;23829;51.350;17.286;2023-01-15T05:42:12;22.00;43.70
38020;DHT22;23829;51.350;17.286;2023-01-15T05:44:38;22.10;43.40
38020;DHT22;23829;51.350;17.286;2023-01-15T05:47:04;22.10;43.50
38020;DHT22;23829;51.350;17.286;2023-01-15T05:49:33;22.00;43.60
38020;DHT22;23829;51.350;17.286;2023-01-15T05:52:00;22.00;43.70
38020;DHT22;23829;51.350;17.286;2023-01-15T05:54:29;21.80;44.10
38020;DHT22;23829;51.350;17.286;2023-01-15T05:56:57;21.90;44.00
38020;DHT22;23829;51.350;17.286;2023-01-15T05:59:26;21.90;43.70
38020;DHT22;23829;51.350;17.286;2023-01-15T06:01:53;22.20;43.40
38020;DHT22;23829;51.350;17.286;2023-01-15T06:04:20;22.30;43.10
38020;DHT22;23829;51.350;17.286;2023-01-15T06:06:48;22.30;43.20
38020;DHT22;23829;51.350;17.286;2023-01-15T06:09:15;22.40;42.80
38020;DHT22;23829;51.350;17.286;2023-01-15T06:11:42;22.30;43.20
38020;DHT22;23829;51.350;17.286;2023-01-15T06:14:10;22.50;42.80
38020;DHT22;23829;51.350;17.286;2023-01-15T06:16:38;22.40;43.00
38020;DHT22;23829;51.350;17.286;2023-01-15T06:19:06;22.30;43.50
38020;DHT22;23829;51.350;17.286;2023-01-15T06:21:34;22.20;43.80
38020;DHT22;23829;51.350;17.286;2023-01-15T06:24:00;22.30;43.60
38020;DHT22;23829;51.350;17.286;2023-01-15T06:26:27;22.30;43.50
38020;DHT22;23829;51.350;17.286;2023-01-15T06:28:53;22.40;43.40
38020;DHT22;23829;51.350;17.286;2023-01-15T06:31:22;22.40;43.30
38020;DHT22;23829;51.350;17.286;2023-01-15T06:33:49;22.30;43.70
38020;DHT22;23829;51.350;17.286;2023-01-15T06:36:18;22.40;43.50
38020;DHT22;23829;51.350;17.286;2023-01-15T06:38:47;22.40;43.50
38020;DHT22;23829;51.350;17.286;2023-01-15T06:41:20;22.00;44.10
38020;DHT22;23829;51.350;17.286;2023-01-15T06:44:05;22.00;44.40
38020;DHT22;23829;51.350;17.286;2023-01-15T06:46:51;22.30;43.90
38020;DHT22;23829;51.350;17.286;2023-01-15T06:49:36;22.20;44.50
38020;DHT22;23829;51.350;17.286;2023-01-15T06:52:04;22.20;43.90
38020;DHT22;23829;51.350;17.286;2023-01-15T06:54:30;21.80;44.70
38020;DHT22;23829;51.350;17.286;2023-01-15T06:56:57;21.90;45.10
38020;DHT22;23829;51.350;17.286;2023-01-15T06:59:23;22.20;44.20
38020;DHT22;23829;51.350;17.286;2023-01-15T07:01:50;22.30;44.10
38020;DHT22;23829;51.350;17.286;2023-01-15T07:04:16;22.20;44.20
38020;DHT22;23829;51.350;17.286;2023-01-15T07:06:43;22.40;44.10
38020;DHT22;23829;51.350;17.286;2023-01-15T07:09:09;22.40;43.70
38020;DHT22;23829;51.350;17.286;2023-01-15T07:11:36;22.10;44.30
38020;DHT22;23829;51.350;17.286;2023-01-15T07:14:19;21.90;44.70
38020;DHT22;23829;51.350;17.286;2023-01-15T07:16:46;22.20;44.50
38020;DHT22;23829;51.350;17.286;2023-01-15T07:19:12;22.10;44.20
38020;DHT22;23829;51.350;17.286;2023-01-15T07:21:39;22.10;44.40
38020;DHT22;23829;51.350;17.286;2023-01-15T07:24:06;22.00;44.50
38020;DHT22;23829;51.350;17.286;2023-01-15T07:26:33;22.10;44.50
38020;DHT22;23829;51.350;17.286;2023-01-15T07:29:03;22.30;44.50
38020;DHT22;23829;51.350;17.286;2023-01-15T07:31:30;22.10;44.60
38020;DHT22;23829;51.350;17.286;2023-01-15T07:33:57;21.80;45.00
38020;DHT22;23829;51.350;17.286;2023-01-15T07:36:24;21.90;45.00
38020;DHT22;23829;51.350;17.286;2023-01-15T07:38:50;21.90;44.90
38020;DHT22;23829;51.350;17.286;2023-01-15T07:41:17;22.10;44.80
38020;DHT22;23829;51.350;17.286;2023-01-15T07:44:02;22.10;44.60
38020;DHT22;23829;51.350;17.286;2023-01-15T07:47:02;21.90;45.50
38020;DHT22;23829;51.350;17.286;2023-01-15T07:49:47;21.90;44.90
38020;DHT22;23829;51.350;17.286;2023-01-15T07:52:19;22.10;44.90
38020;DHT22;23829;51.350;17.286;2023-01-15T07:54:48;22.00;45.50
38020;DHT22;23829;51.350;17.286;2023-01-15T07:57:20;22.10;44.50
38020;DHT22;23829;51.350;17.286;2023-01-15T07:59:47;22.00;44.70
38020;DHT22;23829;51.350;17.286;2023-01-15T08:02:14;22.10;44.50
38020;DHT22;23829;51.350;17.286;2023-01-15T08:04:40;22.20;43.80
38020;DHT22;23829;51.350;17.286;2023-01-15T08:07:07;22.40;43.50
38020;DHT22;23829;51.350;17.286;2023-01-15T08:09:33;22.40;43.50
38020;DHT22;23829;51.350;17.286;2023-01-15T08:12:01;22.70;42.90
38020;DHT22;23829;51.350;17.286;2023-01-15T08:14:46;22.50;42.80
38020;DHT22;23829;51.350;17.286;2023-01-15T08:17:34;22.40;42.90
38020;DHT22;23829;51.350;17.286;2023-01-15T08:20:05;22.30;43.10
38020;DHT22;23829;51.350;17.286;2023-01-15T08:22:34;22.50;42.80
38020;DHT22;23829;51.350;17.286;2023-01-15T08:25:00;22.40;42.60
38020;DHT22;23829;51.350;17.286;2023-01-15T08:27:27;22.20;43.10
38020;DHT22;23829;51.350;17.286;2023-01-15T08:29:54;22.30;42.70
38020;DHT22;23829;51.350;17.286;2023-01-15T08:32:23;22.30;42.40
38020;DHT22;23829;51.350;17.286;2023-01-15T08:34:49;22.30;42.30
38020;DHT22;23829;51.350;17.286;2023-01-15T08:37:16;22.40;42.20
38020;DHT22;23829;51.350;17.286;2023-01-15T08:39:45;22.40;42.00
38020;DHT22;23829;51.350;17.286;2023-01-15T08:42:15;22.60;41.70
38020;DHT22;23829;51.350;17.286;2023-01-15T08:44:41;22.50;41.40
38020;DHT22;23829;51.350;17.286;2023-01-15T08:47:08;22.30;41.70
38020;DHT22;23829;51.350;17.286;2023-01-15T08:49:35;22.40;41.30
38020;DHT22;23829;51.350;17.286;2023-01-15T08:52:03;22.50;41.20
38020;DHT22;23829;51.350;17.286;2023-01-15T08:54:31;22.50;40.90
38020;DHT22;23829;51.350;17.286;2023-01-15T08:56:58;22.40;41.10
38020;DHT22;23829;51.350;17.286;2023-01-15T08:59:25;22.50;40.80
38020;DHT22;23829;51.350;17.286;2023-01-15T09:01:52;22.60;40.80
38020;DHT22;23829;51.350;17.286;2023-01-15T09:04:20;22.50;40.90
38020;DHT22;23829;51.350;17.286;2023-01-15T09:06:48;22.40;41.10
38020;DHT22;23829;51.350;17.286;2023-01-15T09:09:14;22.40;40.90
38020;DHT22;23829;51.350;17.286;2023-01-15T09:11:41;22.30;41.20
38020;DHT22;23829;51.350;17.286;2023-01-15T09:14:10;22.40;40.80
38020;DHT22;23829;51.350;17.286;2023-01-15T09:16:37;22.50;40.70
38020;DHT22;23829;51.350;17.286;2023-01-15T09:19:05;22.50;40.60
38020;DHT22;23829;51.350;17.286;2023-01-15T09:21:32;22.80;39.90
38020;DHT22;23829;51.350;17.286;2023-01-15T09:23:58;22.60;40.10
38020;DHT22;23829;51.350;17.286;2023-01-15T09:26:36;22.40;40.50
38020;DHT22;23829;51.350;17.286;2023-01-15T09:29:04;22.30;40.70
38020;DHT22;23829;51.350;17.286;2023-01-15T09:31:31;22.20;40.70
38020;DHT22;23829;51.350;17.286;2023-01-15T09:33:58;22.50;40.30
38020;DHT22;23829;51.350;17.286;2023-01-15T09:36:32;22.60;40.00
38020;DHT22;23829;51.350;17.286;2023-01-15T09:39:00;22.70;39.80
38020;DHT22;23829;51.350;17.286;2023-01-15T09:53:09;22.50;39.70
38020;DHT22;23829;51.350;17.286;2023-01-15T09:55:46;22.60;39.90
38020;DHT22;23829;51.350;17.286;2023-01-15T09:58:14;22.60;39.80
38020;DHT22;23829;51.350;17.286;2023-01-15T10:00:49;22.70;39.60
38020;DHT22;23829;51.350;17.286;2023-01-15T10:06:28;23.00;39.20
38020;DHT22;23829;51.350;17.286;2023-01-15T10:09:29;23.00;39.00
38020;DHT22;23829;51.350;17.286;2023-01-15T10:12:24;23.00;39.10
38020;DHT22;23829;51.350;17.286;2023-01-15T10:17:42;22.60;39.40
38020;DHT22;23829;51.350;17.286;2023-01-15T10:26:30;22.70;39.20
38020;DHT22;23829;51.350;17.286;2023-01-15T10:32:09;22.70;39.20
38020;DHT22;23829;51.350;17.286;2023-01-15T10:37:29;22.30;39.60
38020;DHT22;23829;51.350;17.286;2023-01-15T10:45:54;22.80;38.60
38020;DHT22;23829;51.350;17.286;2023-01-15T10:48:37;22.90;38.40
38020;DHT22;23829;51.350;17.286;2023-01-15T10:51:14;22.70;38.50
38020;DHT22;23829;51.350;17.286;2023-01-15T10:53:50;22.50;38.60
38020;DHT22;23829;51.350;17.286;2023-01-15T11:01:38;22.30;38.60
38020;DHT22;23829;51.350;17.286;2023-01-15T11:04:10;22.40;38.40
38020;DHT22;23829;51.350;17.286;2023-01-15T11:06:40;22.30;38.30
38020;DHT22;23829;51.350;17.286;2023-01-15T11:09:20;22.20;38.70
38020;DHT22;23829;51.350;17.286;2023-01-15T11:11:48;22.10;38.60
38020;DHT22;23829;51.350;17.286;2023-01-15T11:14:38;22.40;38.30
38020;DHT22;23829;51.350;17.286;2023-01-15T11:17:35;22.50;38.20
38020;DHT22;23829;51.350;17.286;2023-01-15T11:20:27;22.40;38.00
38020;DHT22;23829;51.350;17.286;2023-01-15T11:22:56;22.20;38.40
38020;DHT22;23829;51.350;17.286;2023-01-15T11:25:30;22.20;38.50
38020;DHT22;23829;51.350;17.286;2023-01-15T11:28:00;22.20;38.60
38020;DHT22;23829;51.350;17.286;2023-01-15T11:30:36;22.10;38.50
38020;DHT22;23829;51.350;17.286;2023-01-15T11:33:05;22.20;38.40
38020;DHT22;23829;51.350;17.286;2023-01-15T11:35:33;22.20;38.40
38020;DHT22;23829;51.350;17.286;2023-01-15T11:38:13;22.30;38.40
38020;DHT22;23829;51.350;17.286;2023-01-15T11:40:51;22.30;38.30
38020;DHT22;23829;51.350;17.286;2023-01-15T11:43:22;22.60;37.80
38020;DHT22;23829;51.350;17.286;2023-01-15T11:46:28;22.60;37.80
38020;DHT22;23829;51.350;17.286;2023-01-15T11:49:19;22.70;37.40
38020;DHT22;23829;51.350;17.286;2023-01-15T11:52:08;22.80;37.20
38020;DHT22;23829;51.350;17.286;2023-01-15T11:54:44;23.00;37.00
38020;DHT22;23829;51.350;17.286;2023-01-15T11:57:26;22.90;36.90
38020;DHT22;23829;51.350;17.286;2023-01-15T11:59:53;23.10;36.80
38020;DHT22;23829;51.350;17.286;2023-01-15T12:04:59;23.40;36.00
38020;DHT22;23829;51.350;17.286;2023-01-15T12:07:28;23.60;35.60
38020;DHT22;23829;51.350;17.286;2023-01-15T12:12:55;23.60;35.60
38020;DHT22;23829;51.350;17.286;2023-01-15T12:15:32;23.70;35.40
38020;DHT22;23829;51.350;17.286;2023-01-15T12:24:36;24.00;35.00
38020;DHT22;23829;51.350;17.286;2023-01-15T12:30:35;23.90;35.10
38020;DHT22;23829;51.350;17.286;2023-01-15T12:36:51;23.80;36.00
38020;DHT22;23829;51.350;17.286;2023-01-15T12:46:43;23.30;37.30
38020;DHT22;23829;51.350;17.286;2023-01-15T12:49:29;23.50;37.70
38020;DHT22;23829;51.350;17.286;2023-01-15T12:52:01;23.40;37.80
38020;DHT22;23829;51.350;17.286;2023-01-15T12:54:48;23.60;37.50
38020;DHT22;23829;51.350;17.286;2023-01-15T12:57:30;23.60;37.60
38020;DHT22;23829;51.350;17.286;2023-01-15T13:02:37;23.60;37.70
38020;DHT22;23829;51.350;17.286;2023-01-15T13:05:19;23.50;37.60
38020;DHT22;23829;51.350;17.286;2023-01-15T13:07:58;23.30;37.70
38020;DHT22;23829;51.350;17.286;2023-01-15T13:10:29;23.20;38.10
38020;DHT22;23829;51.350;17.286;2023-01-15T13:13:38;23.30;38.10
38020;DHT22;23829;51.350;17.286;2023-01-15T13:18:51;23.50;38.10
38020;DHT22;23829;51.350;17.286;2023-01-15T13:21:18;23.40;37.60
38020;DHT22;23829;51.350;17.286;2023-01-15T13:29:04;23.20;38.20
38020;DHT22;23829;51.350;17.286;2023-01-15T13:34:36;23.30;38.40
38020;DHT22;23829;51.350;17.286;2023-01-15T13:37:28;23.30;38.00
38020;DHT22;23829;51.350;17.286;2023-01-15T13:40:05;23.20;37.90
38020;DHT22;23829;51.350;17.286;2023-01-15T13:42:35;23.20;38.40
38020;DHT22;23829;51.350;17.286;2023-01-15T13:47:48;23.40;37.80
38020;DHT22;23829;51.350;17.286;2023-01-15T13:50:22;23.20;37.90
38020;DHT22;23829;51.350;17.286;2023-01-15T13:55:40;23.20;38.10
38020;DHT22;23829;51.350;17.286;2023-01-15T13:58:23;23.30;38.20
38020;DHT22;23829;51.350;17.286;2023-01-15T14:03:31;23.40;37.90
38020;DHT22;23829;51.350;17.286;2023-01-15T14:06:03;23.50;37.80
38020;DHT22;23829;51.350;17.286;2023-01-15T14:08:44;23.60;37.80
38020;DHT22;23829;51.350;17.286;2023-01-15T14:16:35;23.10;38.20
38020;DHT22;23829;51.350;17.286;2023-01-15T14:22:06;22.60;38.50
38020;DHT22;23829;51.350;17.286;2023-01-15T14:35:46;22.60;38.00
38020;DHT22;23829;51.350;17.286;2023-01-15T14:38:16;22.60;38.10
38020;DHT22;23829;51.350;17.286;2023-01-15T14:41:10;22.70;37.60
38020;DHT22;23829;51.350;17.286;2023-01-15T14:43:40;22.60;37.70
38020;DHT22;23829;51.350;17.286;2023-01-15T14:46:31;22.70;37.50
38020;DHT22;23829;51.350;17.286;2023-01-15T14:49:41;22.70;37.50
38020;DHT22;23829;51.350;17.286;2023-01-15T14:52:08;22.80;37.50
38020;DHT22;23829;51.350;17.286;2023-01-15T14:54:36;22.80;37.20
38020;DHT22;23829;51.350;17.286;2023-01-15T14:57:07;22.70;37.30
38020;DHT22;23829;51.350;17.286;2023-01-15T14:59:53;22.70;37.60
38020;DHT22;23829;51.350;17.286;2023-01-15T15:02:46;22.50;37.50
38020;DHT22;23829;51.350;17.286;2023-01-15T15:05:17;22.70;37.70
38020;DHT22;23829;51.350;17.286;2023-01-15T15:07:46;22.90;37.30
38020;DHT22;23829;51.350;17.286;2023-01-15T15:10:40;22.90;37.20
38020;DHT22;23829;51.350;17.286;2023-01-15T15:15:50;22.90;37.20
38020;DHT22;23829;51.350;17.286;2023-01-15T15:18:40;22.90;37.10
38020;DHT22;23829;51.350;17.286;2023-01-15T15:21:16;23.00;37.00
38020;DHT22;23829;51.350;17.286;2023-01-15T15:26:26;23.10;36.70
38020;DHT22;23829;51.350;17.286;2023-01-15T15:28:56;23.00;36.80
38020;DHT22;23829;51.350;17.286;2023-01-15T15:31:22;23.00;36.90
38020;DHT22;23829;51.350;17.286;2023-01-15T15:33:55;23.10;36.60
38020;DHT22;23829;51.350;17.286;2023-01-15T15:36:25;23.10;36.50
38020;DHT22;23829;51.350;17.286;2023-01-15T15:38:59;23.20;36.70
38020;DHT22;23829;51.350;17.286;2023-01-15T15:41:35;23.10;36.50
38020;DHT22;23829;51.350;17.286;2023-01-15T15:44:37;23.10;36.50
38020;DHT22;23829;51.350;17.286;2023-01-15T15:47:25;23.30;36.40
38020;DHT22;23829;51.350;17.286;2023-01-15T15:50:28;23.30;36.30
38020;DHT22;23829;51.350;17.286;2023-01-15T15:52:56;23.30;36.30
38020;DHT22;23829;51.350;17.286;2023-01-15T15:55:25;23.20;36.20
38020;DHT22;23829;51.350;17.286;2023-01-15T15:57:58;23.10;36.20
38020;DHT22;23829;51.350;17.286;2023-01-15T16:00:33;23.00;36.40
38020;DHT22;23829;51.350;17.286;2023-01-15T16:03:04;22.90;36.50
38020;DHT22;23829;51.350;17.286;2023-01-15T16:05:31;22.80;36.60
38020;DHT22;23829;51.350;17.286;2023-01-15T16:08:29;22.80;36.70
38020;DHT22;23829;51.350;17.286;2023-01-15T16:11:07;22.80;36.90
38020;DHT22;23829;51.350;17.286;2023-01-15T16:13:43;22.70;36.90
38020;DHT22;23829;51.350;17.286;2023-01-15T16:16:12;22.60;37.30
38020;DHT22;23829;51.350;17.286;2023-01-15T16:18:50;22.60;37.10
38020;DHT22;23829;51.350;17.286;2023-01-15T16:21:23;22.30;37.40
38020;DHT22;23829;51.350;17.286;2023-01-15T16:23:59;22.40;37.70
38020;DHT22;23829;51.350;17.286;2023-01-15T16:26:39;22.20;37.80
38020;DHT22;23829;51.350;17.286;2023-01-15T16:29:21;22.30;38.00
38020;DHT22;23829;51.350;17.286;2023-01-15T16:31:49;22.30;37.70
38020;DHT22;23829;51.350;17.286;2023-01-15T16:34:19;22.20;37.90
38020;DHT22;23829;51.350;17.286;2023-01-15T16:36:46;22.00;38.30
38020;DHT22;23829;51.350;17.286;2023-01-15T16:41:45;21.90;38.60
38020;DHT22;23829;51.350;17.286;2023-01-15T16:47:02;22.10;38.60
38020;DHT22;23829;51.350;17.286;2023-01-15T16:49:31;22.10;38.70
38020;DHT22;23829;51.350;17.286;2023-01-15T16:52:00;22.20;38.40
38020;DHT22;23829;51.350;17.286;2023-01-15T16:57:26;21.70;39.00
38020;DHT22;23829;51.350;17.286;2023-01-15T17:02:21;21.80;39.20
38020;DHT22;23829;51.350;17.286;2023-01-15T17:04:48;22.10;38.80
38020;DHT22;23829;51.350;17.286;2023-01-15T17:07:24;22.10;38.60
38020;DHT22;23829;51.350;17.286;2023-01-15T17:09:55;22.10;38.60
38020;DHT22;23829;51.350;17.286;2023-01-15T17:12:40;22.20;38.40
38020;DHT22;23829;51.350;17.286;2023-01-15T17:17:50;22.40;38.00
38020;DHT22;23829;51.350;17.286;2023-01-15T17:20:18;22.40;37.80
38020;DHT22;23829;51.350;17.286;2023-01-15T17:22:47;22.40;37.80
38020;DHT22;23829;51.350;17.286;2023-01-15T17:27:54;22.20;38.00
38020;DHT22;23829;51.350;17.286;2023-01-15T17:30:21;22.20;37.90
38020;DHT22;23829;51.350;17.286;2023-01-15T17:32:57;22.00;38.30
38020;DHT22;23829;51.350;17.286;2023-01-15T17:35:26;22.10;38.40
38020;DHT22;23829;51.350;17.286;2023-01-15T17:37:53;22.00;38.30
38020;DHT22;23829;51.350;17.286;2023-01-15T17:40:20;21.80;38.80
38020;DHT22;23829;51.350;17.286;2023-01-15T17:42:47;21.70;38.80
38020;DHT22;23829;51.350;17.286;2023-01-15T17:45:19;21.60;39.00
38020;DHT22;23829;51.350;17.286;2023-01-15T17:47:46;21.50;39.40
38020;DHT22;23829;51.350;17.286;2023-01-15T17:50:13;21.70;39.20
38020;DHT22;23829;51.350;17.286;2023-01-15T17:52:40;21.60;39.50
38020;DHT22;23829;51.350;17.286;2023-01-15T17:55:15;21.50;39.30
38020;DHT22;23829;51.350;17.286;2023-01-15T17:58:02;21.30;39.90
38020;DHT22;23829;51.350;17.286;2023-01-15T18:00:51;21.50;39.80
38020;DHT22;23829;51.350;17.286;2023-01-15T18:03:44;21.60;39.30
38020;DHT22;23829;51.350;17.286;2023-01-15T18:06:29;21.60;39.30
38020;DHT22;23829;51.350;17.286;2023-01-15T18:08:58;21.40;39.40
38020;DHT22;23829;51.350;17.286;2023-01-15T18:11:25;21.50;39.80
38020;DHT22;23829;51.350;17.286;2023-01-15T18:13:52;21.80;39.30
38020;DHT22;23829;51.350;17.286;2023-01-15T18:16:18;21.90;39.70